Time;durP1;ratioP1;P1;durP2;ratioP2;P2;SDS_P1;SDS_P2;PMS_P1;PMS_P2;Temp;Humidity;BMP_temperature;BMP_pressure;BME280_temperature;BME280_humidity;BME280_pressure;Samples;Min_cycle;Max_cycle;Signal;HPM_P1;HPM_P2
2022/11/22 00:04:43;;;;;;;12.80;5.80;;;6.90;98.40;;;;;;20993463;28;20210;-70
2022/11/22 00:14:45;;;;;;;10.17;5.23;;;6.90;98.50;;;;;;20992817;28;20295;-70
2022/11/22 00:24:47;;;;;;;11.90;5.50;;;6.90;98.50;;;;;;20992756;28;20211;-70
2022/11/22 00:34:49;;;;;;;10.47;5.97;;;6.90;98.50;;;;;;20993221;28;20241;-71
2022/11/22 00:44:51;;;;;;;11.43;6.27;;;6.90;98.70;;;;;;21007300;28;20206;-71
2022/11/22 00:54:52;;;;;;;12.60;5.47;;;6.90;98.70;;;;;;21007903;28;20294;-71
2022/11/22 01:04:55;;;;;;;11.57;5.00;;;6.90;98.60;;;;;;21007034;28;20209;-71
2022/11/22 01:14:57;;;;;;;8.40;5.20;;;7.00;98.80;;;;;;21006149;28;20242;-69
2022/11/22 01:24:59;;;;;;;8.23;4.60;;;7.10;98.80;;;;;;21005497;28;20213;-71
2022/11/22 01:35:00;;;;;;;9.23;4.77;;;7.20;98.80;;;;;;21004498;28;20235;-71
2022/11/22 01:45:30;;;;;;;11.40;5.63;;;7.20;99.10;;;;;;21005881;28;20206;-72
2022/11/22 01:55:33;;;;;;;8.53;4.47;;;7.20;98.90;;;;;;21006691;28;20676;-70
2022/11/22 02:05:35;;;;;;;8.47;4.10;;;7.20;98.80;;;;;;21006713;28;20582;-70
2022/11/22 02:15:37;;;;;;;8.40;3.90;;;7.20;99.10;;;;;;21003668;28;20245;-71
2022/11/22 02:25:56;;;;;;;6.27;4.27;;;7.20;98.60;;;;;;21003130;28;20259;-70
2022/11/22 02:35:58;;;;;;;6.60;4.23;;;7.20;98.80;;;;;;21002533;28;20276;-70
2022/11/22 02:46:05;;;;;;;6.77;4.20;;;7.30;98.60;;;;;;21001213;28;20230;-71
2022/11/22 02:56:07;;;;;;;7.83;4.53;;;7.20;98.70;;;;;;21000327;28;20239;-70
2022/11/22 03:06:08;;;;;;;8.07;4.77;;;7.30;98.80;;;;;;20999322;28;20217;-71
2022/11/22 03:16:10;;;;;;;7.10;4.00;;;7.20;98.80;;;;;;20998581;28;20240;-71
2022/11/22 03:26:12;;;;;;;7.23;4.97;;;7.30;98.80;;;;;;20998268;28;20719;-70
2022/11/22 03:36:13;;;;;;;7.87;4.43;;;7.30;98.90;;;;;;20997736;28;20264;-70
2022/11/22 03:46:18;;;;;;;8.43;4.53;;;7.30;98.80;;;;;;20996904;28;20568;-70
2022/11/22 03:56:19;;;;;;;9.50;4.27;;;7.30;99.00;;;;;;20996270;28;20231;-70
2022/11/22 04:06:21;;;;;;;7.07;4.77;;;7.30;98.90;;;;;;20996194;28;20208;-70
2022/11/22 04:16:23;;;;;;;10.33;5.17;;;7.20;99.10;;;;;;20995148;28;20248;-71
2022/11/22 04:26:25;;;;;;;8.97;4.67;;;7.20;99.10;;;;;;20995114;28;20268;-71
2022/11/22 04:36:26;;;;;;;9.10;4.80;;;7.10;99.20;;;;;;20994739;28;20234;-71
2022/11/22 04:46:30;;;;;;;10.23;5.07;;;7.10;99.40;;;;;;20994209;28;20587;-71
2022/11/22 04:56:34;;;;;;;7.40;5.30;;;7.10;99.40;;;;;;20992533;28;20420;-71
2022/11/22 05:06:36;;;;;;;8.50;4.47;;;7.20;99.70;;;;;;20993434;28;20265;-70
2022/11/22 05:16:37;;;;;;;11.13;5.53;;;7.20;99.70;;;;;;20991723;28;20242;-70
2022/11/22 05:26:39;;;;;;;7.70;5.37;;;7.20;99.80;;;;;;21002579;28;20206;-69
2022/11/22 05:36:41;;;;;;;8.23;5.23;;;7.20;99.90;;;;;;21006739;28;20779;-69
2022/11/22 05:46:42;;;;;;;9.40;4.90;;;7.20;99.90;;;;;;21006411;28;20206;-69
2022/11/22 05:56:44;;;;;;;9.47;5.17;;;7.10;99.90;;;;;;21003443;28;20237;-71
2022/11/22 06:06:46;;;;;;;8.70;5.10;;;7.00;99.90;;;;;;21001391;28;20210;-71
2022/11/22 06:16:50;;;;;;;9.23;5.97;;;6.90;99.90;;;;;;21002995;28;20253;-69
2022/11/22 06:26:51;;;;;;;13.60;5.80;;;6.80;99.90;;;;;;21001873;28;20209;-71
2022/11/22 06:36:53;;;;;;;9.33;5.40;;;6.90;99.90;;;;;;21002126;28;20235;-71
2022/11/22 06:46:55;;;;;;;12.10;6.03;;;6.80;99.90;;;;;;21000303;28;20255;-71
2022/11/22 06:56:56;;;;;;;11.17;6.57;;;6.80;99.90;;;;;;20999738;28;20283;-71
2022/11/22 07:06:58;;;;;;;10.50;6.30;;;6.70;99.90;;;;;;20998846;28;20251;-71
2022/11/22 07:17:00;;;;;;;10.63;6.33;;;6.60;99.90;;;;;;20998097;28;20245;-71
2022/11/22 07:27:02;;;;;;;8.47;6.30;;;6.70;99.90;;;;;;20995214;28;20198;-70
2022/11/22 07:37:03;;;;;;;13.83;7.60;;;6.70;99.90;;;;;;20949586;28;20320;-69
2022/11/22 07:47:09;;;;;;;14.50;6.87;;;6.70;99.90;;;;;;20968190;28;20209;-70
2022/11/22 07:57:11;;;;;;;14.77;7.70;;;6.80;99.90;;;;;;20911968;28;20271;-69
2022/11/22 08:07:13;;;;;;;11.83;7.63;;;6.90;99.90;;;;;;20963798;28;20275;-69
2022/11/22 08:17:15;;;;;;;14.43;7.23;;;6.90;99.90;;;;;;20993576;28;20242;-68
2022/11/22 08:27:16;;;;;;;20.30;7.97;;;7.00;99.90;;;;;;20993838;28;20210;-67
2022/11/22 08:37:18;;;;;;;11.23;6.50;;;7.10;99.90;;;;;;20975474;28;20303;-68
2022/11/22 08:47:21;;;;;;;18.40;7.57;;;7.10;99.90;;;;;;20910094;28;20210;-67
2022/11/22 08:57:23;;;;;;;15.00;8.50;;;7.40;99.90;;;;;;20912283;28;20721;-69
2022/11/22 09:07:24;;;;;;;24.87;9.93;;;7.50;99.90;;;;;;20925971;28;20200;-70
2022/11/22 09:17:46;;;;;;;22.80;11.03;;;7.70;99.90;;;;;;20924804;28;20329;-70
2022/11/22 09:27:48;;;;;;;13.77;8.00;;;7.90;99.90;;;;;;20924123;28;20209;-69
2022/11/22 09:37:49;;;;;;;14.23;8.33;;;8.10;99.90;;;;;;20945646;28;20639;-70
2022/11/22 09:48:00;;;;;;;19.07;7.97;;;8.30;99.90;;;;;;21005086;28;20207;-70
2022/11/22 09:58:20;;;;;;;17.67;7.13;;;8.60;99.90;;;;;;21004643;28;20231;-69
2022/11/22 10:08:41;;;;;;;67.83;30.90;;;8.80;99.90;;;;;;21003501;28;20203;-68
2022/11/22 10:18:45;;;;;;;175.00;78.07;;;9.10;99.90;;;;;;21002312;28;20353;-70
2022/11/22 10:29:00;;;;;;;17.13;7.63;;;9.40;99.90;;;;;;21000174;28;20201;-71
2022/11/22 10:39:18;;;;;;;6.87;2.50;;;9.60;99.90;;;;;;20967339;28;20597;-70
2022/11/22 10:49:48;;;;;;;9.67;2.33;;;9.60;98.70;;;;;;20916717;28;20254;-72
2022/11/22 11:00:14;;;;;;;7.63;2.10;;;9.70;96.80;;;;;;20946564;28;20236;-71
2022/11/22 11:10:24;;;;;;;10.70;2.40;;;9.70;95.30;;;;;;20971836;28;20202;-71
2022/11/22 11:20:40;;;;;;;7.97;1.97;;;9.80;95.00;;;;;;20914921;28;20251;-69
2022/11/22 11:31:02;;;;;;;10.10;2.23;;;9.90;94.80;;;;;;20967862;28;20261;-72
2022/11/22 11:41:20;;;;;;;5.67;1.97;;;10.00;93.70;;;;;;20996250;28;20229;-70
2022/11/22 11:51:38;;;;;;;6.90;1.90;;;10.10;93.60;;;;;;20995788;28;20214;-70
2022/11/22 12:01:54;;;;;;;8.93;1.90;;;10.10;93.40;;;;;;20967888;28;20635;-70
2022/11/22 12:12:02;;;;;;;10.67;2.20;;;10.20;93.10;;;;;;20911016;28;20234;-70
2022/11/22 12:22:28;;;;;;;9.80;2.10;;;10.20;92.80;;;;;;20910862;28;20249;-71
2022/11/22 12:32:59;;;;;;;9.00;2.10;;;10.20;92.60;;;;;;20914505;28;20678;-65
2022/11/22 12:43:10;;;;;;;9.23;2.60;;;10.20;92.60;;;;;;20992696;28;20233;-70
2022/11/22 12:53:15;;;;;;;5.10;1.80;;;10.30;92.50;;;;;;21010465;28;20673;-69
2022/11/22 13:03:26;;;;;;;7.07;1.77;;;10.30;92.80;;;;;;21008556;28;20284;-69
2022/11/22 13:13:38;;;;;;;7.33;1.93;;;10.50;92.10;;;;;;21006590;28;20316;-66
2022/11/22 13:24:08;;;;;;;6.87;1.87;;;10.50;91.90;;;;;;21003171;28;20235;-67
2022/11/22 13:34:24;;;;;;;11.73;2.13;;;10.60;91.70;;;;;;21005264;28;20214;-66
2022/11/22 13:44:31;;;;;;;7.73;1.90;;;10.50;91.30;;;;;;21004769;28;20219;-66
2022/11/22 13:54:39;;;;;;;6.07;1.90;;;10.50;91.40;;;;;;21002995;28;20204;-66
2022/11/22 14:04:42;;;;;;;8.77;2.53;;;10.50;91.70;;;;;;21004337;28;20276;-65
2022/11/22 14:14:53;;;;;;;5.57;2.17;;;10.50;91.30;;;;;;21002936;28;20237;-66
2022/11/22 14:25:24;;;;;;;7.20;2.17;;;10.40;91.20;;;;;;21002644;28;20199;-66
2022/11/22 14:35:31;;;;;;;5.33;1.97;;;10.20;91.20;;;;;;20981233;28;20237;-66
2022/11/22 14:45:54;;;;;;;7.23;2.30;;;10.10;91.20;;;;;;21000143;28;20209;-66
2022/11/22 14:56:16;;;;;;;7.47;2.27;;;9.90;91.90;;;;;;20998526;28;20268;-66
2022/11/22 15:06:23;;;;;;;10.57;3.00;;;9.90;92.00;;;;;;20999241;28;20211;-66
2022/11/22 15:16:45;;;;;;;7.33;3.20;;;9.60;92.40;;;;;;20998857;28;20272;-71
2022/11/22 15:27:21;;;;;;;8.47;2.63;;;9.50;92.50;;;;;;20998586;28;20211;-66
2022/11/22 15:37:54;;;;;;;10.70;3.27;;;9.40;93.00;;;;;;20996907;28;20330;-68
2022/11/22 15:48:20;;;;;;;8.93;3.60;;;9.10;93.60;;;;;;20995240;28;20239;-69
2022/11/22 15:58:48;;;;;;;13.47;4.63;;;9.00;93.90;;;;;;20979478;28;20335;-68
2022/11/22 16:08:57;;;;;;;11.50;3.93;;;8.80;94.30;;;;;;20913339;28;20204;-65
2022/11/22 16:19:22;;;;;;;6.90;3.77;;;8.70;94.70;;;;;;20948689;28;20751;-65
2022/11/22 16:29:27;;;;;;;8.43;3.77;;;8.60;94.90;;;;;;20981253;28;20690;-67
2022/11/22 16:39:30;;;;;;;12.97;5.00;;;8.50;95.50;;;;;;20911447;28;20232;-65
2022/11/22 16:49:33;;;;;;;13.03;6.63;;;;;;;;;;20933377;28;20242;-64
2022/11/22 16:59:35;;;;;;;12.10;4.60;;;8.60;96.10;;;;;;20980280;28;20236;-64
2022/11/22 17:09:37;;;;;;;10.70;3.57;;;8.70;96.10;;;;;;20906177;28;20668;-66
2022/11/22 17:19:38;;;;;;;11.30;5.70;;;8.70;96.20;;;;;;20911980;28;20279;-70
2022/11/22 17:29:54;;;;;;;15.23;7.27;;;8.60;96.30;;;;;;20924033;28;20245;-72
2022/11/22 17:39:56;;;;;;;48.90;23.73;;;8.50;96.40;;;;;;20965747;28;20250;-69
2022/11/22 17:49:57;;;;;;;16.43;7.73;;;8.50;96.70;;;;;;21005695;28;20202;-71
2022/11/22 17:59:59;;;;;;;12.03;6.70;;;8.40;96.80;;;;;;21004390;28;20713;-68
2022/11/22 18:10:01;;;;;;;13.43;6.40;;;8.40;97.00;;;;;;21003697;28;20251;-66
2022/11/22 18:20:03;;;;;;;13.07;6.70;;;;;;;;;;20955889;28;20244;-66
2022/11/22 18:30:05;;;;;;;15.90;7.33;;;8.40;97.20;;;;;;20917120;28;20227;-67
2022/11/22 18:40:08;;;;;;;15.00;7.63;;;8.40;97.40;;;;;;20918810;28;20705;-66
2022/11/22 18:50:11;;;;;;;28.50;11.43;;;8.30;97.70;;;;;;20916238;28;20617;-66
2022/11/22 19:00:13;;;;;;;16.27;7.67;;;8.20;97.60;;;;;;20915656;28;20753;-71
2022/11/22 19:10:15;;;;;;;12.43;6.67;;;8.10;97.70;;;;;;20916279;28;20208;-71
2022/11/22 19:20:17;;;;;;;11.13;5.87;;;8.20;97.90;;;;;;20916076;28;20247;-69
2022/11/22 19:30:39;;;;;;;8.40;4.47;;;8.20;97.80;;;;;;20914708;28;20232;-69
2022/11/22 19:40:44;;;;;;;10.33;4.47;;;8.20;97.90;;;;;;20913576;28;20238;-68
2022/11/22 19:50:46;;;;;;;10.30;4.67;;;8.40;97.90;;;;;;20929814;28;20233;-70
2022/11/22 20:00:48;;;;;;;14.13;4.93;;;8.40;97.90;;;;;;20982884;28;20239;-70
2022/11/22 20:10:49;;;;;;;13.00;5.37;;;8.50;97.90;;;;;;20995795;28;20203;-71
2022/11/22 20:20:57;;;;;;;11.40;6.07;;;8.40;97.90;;;;;;20995625;28;20344;-68
2022/11/22 20:31:16;;;;;;;10.27;4.43;;;8.40;98.10;;;;;;20993624;28;20214;-69
2022/11/22 20:41:20;;;;;;;9.27;4.07;;;8.40;98.10;;;;;;20992291;28;20840;-69
2022/11/22 20:51:24;;;;;;;7.23;3.37;;;8.40;98.20;;;;;;20994008;28;20207;-70
2022/11/22 21:01:28;;;;;;;7.17;3.87;;;8.30;98.40;;;;;;21007694;28;20245;-69
2022/11/22 21:11:30;;;;;;;11.43;4.63;;;8.20;98.30;;;;;;21007307;28;20690;-68
2022/11/22 21:21:34;;;;;;;12.23;5.20;;;8.00;98.20;;;;;;21005573;28;20254;-69
2022/11/22 21:31:36;;;;;;;10.20;5.57;;;8.00;98.60;;;;;;21005463;28;20680;-70
2022/11/22 21:41:38;;;;;;;13.17;5.63;;;7.60;98.40;;;;;;21004526;28;20241;-70
2022/11/22 21:51:41;;;;;;;15.67;6.27;;;7.50;98.50;;;;;;21004258;28;20207;-70
2022/11/22 22:01:43;;;;;;;10.50;4.70;;;7.40;98.60;;;;;;21003184;28;20246;-70
2022/11/22 22:11:46;;;;;;;8.47;4.47;;;7.20;98.60;;;;;;21001906;28;20285;-70
2022/11/22 22:21:48;;;;;;;11.93;5.43;;;7.10;98.80;;;;;;21002909;28;20245;-70
2022/11/22 22:31:49;;;;;;;8.97;4.13;;;7.00;98.80;;;;;;21002823;28;20211;-69
2022/11/22 22:41:51;;;;;;;7.30;4.37;;;;;;;;;;21002460;28;20257;-67
2022/11/22 22:51:54;;;;;;;5.33;3.50;;;6.60;98.90;;;;;;21001706;28;20209;-68
2022/11/22 23:01:55;;;;;;;6.30;4.00;;;6.60;99.20;;;;;;21001185;28;20242;-68
2022/11/22 23:12:09;;;;;;;6.40;3.93;;;6.40;98.90;;;;;;20999958;28;20342;-67
2022/11/22 23:22:10;;;;;;;7.63;3.67;;;6.20;99.10;;;;;;20998012;28;20291;-68
2022/11/22 23:32:12;;;;;;;5.23;3.67;;;6.20;99.20;;;;;;20998710;28;20208;-68
2022/11/22 23:42:14;;;;;;;8.27;3.43;;;6.20;99.30;;;;;;20997183;28;20259;-68
2022/11/22 23:52:16;;;;;;;6.30;3.67;;;6.00;99.30;;;;;;20996792;28;20212;-69
